createdAt,value
2018-12-29T00:01:42.123Z,32.73
2018-12-29T00:04:14.983Z,31.73
2018-12-29T00:06:47.873Z,32.63
2018-12-29T00:09:20.993Z,31.63
2018-12-29T00:11:53.375Z,31.63
2018-12-29T00:17:55.925Z,31.00
2018-12-29T00:20:31.601Z,29.93
2018-12-29T00:23:09.209Z,28.80
2018-12-29T00:25:43.681Z,28.83
2018-12-29T00:28:21.754Z,27.03
2018-12-29T00:30:55.421Z,27.33
2018-12-29T00:33:32.013Z,29.60
2018-12-29T00:36:14.645Z,26.77
2018-12-29T00:38:53.202Z,25.50
2018-12-29T00:41:31.536Z,24.67
2018-12-29T00:44:06.334Z,25.57
2018-12-29T00:46:40.788Z,24.23
2018-12-29T00:49:30.764Z,25.20
2018-12-29T00:52:01.049Z,23.93
2018-12-29T00:54:38.467Z,24.93
2018-12-29T00:57:08.241Z,24.03
2018-12-29T00:59:37.721Z,24.37
2018-12-29T01:02:08.763Z,22.83
2018-12-29T01:04:38.319Z,23.67
2018-12-29T01:07:20.551Z,22.77
2018-12-29T01:10:02.297Z,23.50
2018-12-29T01:12:38.119Z,22.47
2018-12-29T01:15:11.992Z,23.97
2018-12-29T01:21:57.664Z,22.33
2018-12-29T01:24:44.178Z,20.20
2018-12-29T01:27:24.731Z,22.47
2018-12-29T01:30:21.829Z,20.50
2018-12-29T01:32:59.831Z,18.50
2018-12-29T01:36:03.556Z,21.43
2018-12-29T01:38:37.805Z,20.33
2018-12-29T01:41:15.254Z,20.37
2018-12-29T01:43:50.147Z,19.03
2018-12-29T01:46:30.715Z,20.23
2018-12-29T01:49:15.059Z,19.40
2018-12-29T01:51:50.858Z,18.97
2018-12-29T01:54:24.534Z,19.57
2018-12-29T01:57:00.565Z,19.13
2018-12-29T01:59:40.089Z,19.67
2018-12-29T02:02:14.751Z,18.83
2018-12-29T02:05:00.237Z,18.67
2018-12-29T02:07:51.642Z,17.77
2018-12-29T02:10:21.776Z,17.90
2018-12-29T02:12:56.167Z,17.57
2018-12-29T02:15:35.090Z,17.53
2018-12-29T02:18:18.941Z,17.07
2018-12-29T02:20:54.781Z,16.73
2018-12-29T02:23:32.607Z,16.47
2018-12-29T02:26:09.089Z,16.60
2018-12-29T02:28:47.041Z,17.00
2018-12-29T02:31:19.792Z,18.07
2018-12-29T02:33:58.074Z,17.17
2018-12-29T02:36:43.664Z,16.27
2018-12-29T02:39:18.831Z,16.30
2018-12-29T02:41:54.892Z,16.67
2018-12-29T02:44:34.704Z,16.93
2018-12-29T02:47:08.592Z,17.03
2018-12-29T02:49:41.175Z,16.93
2018-12-29T02:52:14.963Z,16.87
2018-12-29T02:55:04.880Z,16.43
2018-12-29T02:57:39.070Z,16.33
2018-12-29T03:00:11.844Z,16.60
2018-12-29T03:02:57.175Z,15.37
2018-12-29T03:05:29.095Z,16.33
2018-12-29T03:08:00.184Z,16.00
2018-12-29T03:10:31.547Z,17.30
2018-12-29T03:13:03.739Z,17.47
2018-12-29T03:15:41.606Z,16.90
2018-12-29T03:18:14.479Z,18.20
2018-12-29T03:20:45.641Z,18.07
2018-12-29T03:23:22.907Z,17.77
2018-12-29T03:25:57.097Z,15.50
2018-12-29T03:28:31.610Z,17.83
2018-12-29T03:31:17.174Z,17.17
2018-12-29T03:33:50.993Z,16.60
2018-12-29T03:36:54.388Z,15.93
2018-12-29T03:45:38.156Z,17.60
2018-12-29T03:48:30.766Z,16.73
2018-12-29T03:51:14.379Z,17.63
2018-12-29T03:53:51.839Z,16.13
2018-12-29T03:56:22.115Z,18.70
2018-12-29T03:59:00.703Z,16.60
2018-12-29T04:01:30.630Z,17.63
2018-12-29T04:04:19.343Z,17.33
2018-12-29T04:07:09.374Z,17.73
2018-12-29T04:09:39.386Z,17.47
2018-12-29T04:12:31.487Z,19.40
2018-12-29T04:15:09.917Z,16.27
2018-12-29T04:17:39.667Z,19.17
2018-12-29T04:20:10.979Z,18.07
2018-12-29T04:22:40.981Z,17.93
2018-12-29T04:25:14.881Z,17.90
2018-12-29T04:27:50.249Z,18.77
2018-12-29T04:30:30.860Z,17.67
2018-12-29T04:33:18.233Z,19.17
2018-12-29T04:35:51.486Z,18.07
2018-12-29T04:38:37.408Z,17.40
2018-12-29T04:41:43.941Z,17.03
2018-12-29T04:44:27.777Z,17.93
2018-12-29T04:47:16.330Z,17.70
2018-12-29T04:49:50.892Z,17.40
2018-12-29T04:52:47.569Z,18.77
2018-12-29T04:55:26.642Z,18.67
2018-12-29T04:58:09.386Z,18.03
2018-12-29T05:00:51.507Z,17.70
2018-12-29T05:03:28.070Z,18.67
2018-12-29T05:05:58.548Z,20.30
2018-12-29T05:08:32.336Z,18.87
2018-12-29T05:11:07.601Z,19.37
2018-12-29T05:13:38.641Z,18.90
2018-12-29T05:16:13.030Z,18.43
2018-12-29T05:18:41.961Z,18.63
2018-12-29T05:21:13.016Z,18.97
2018-12-29T05:27:00.582Z,20.43
2018-12-29T05:29:34.372Z,20.53
2018-12-29T05:32:39.921Z,22.70
2018-12-29T05:35:20.677Z,22.17
2018-12-29T05:38:01.542Z,23.03
2018-12-29T05:40:37.736Z,22.10
2018-12-29T05:43:25.804Z,23.27
2018-12-29T05:45:59.728Z,22.53
2018-12-29T05:48:34.345Z,23.00
2018-12-29T05:51:08.391Z,24.67
2018-12-29T05:53:46.567Z,24.33
2018-12-29T05:56:18.341Z,25.20
2018-12-29T05:58:53.439Z,24.90
2018-12-29T06:01:26.360Z,24.90
2018-12-29T06:04:14.982Z,23.60
2018-12-29T06:06:57.330Z,24.03
2018-12-29T06:09:32.819Z,25.00
2018-12-29T06:12:17.224Z,26.53
2018-12-29T06:14:53.292Z,24.67
2018-12-29T06:17:26.977Z,25.87
2018-12-29T06:20:02.293Z,26.10
2018-12-29T06:25:44.457Z,25.80
2018-12-29T06:28:24.282Z,27.20
2018-12-29T06:31:05.244Z,26.67
2018-12-29T06:33:43.738Z,25.00
2018-12-29T06:36:18.210Z,27.17
2018-12-29T06:38:49.211Z,27.43
2018-12-29T06:41:23.279Z,25.63
2018-12-29T06:44:12.637Z,25.90
2018-12-29T06:46:53.234Z,25.53
2018-12-29T06:49:31.922Z,26.40
2018-12-29T06:52:19.328Z,26.60
2018-12-29T06:55:01.666Z,27.80
2018-12-29T06:57:47.267Z,26.57
2018-12-29T07:00:52.638Z,24.83
2018-12-29T07:03:26.974Z,24.03
2018-12-29T07:05:56.680Z,22.73
2018-12-29T07:08:30.976Z,26.07
2018-12-29T07:11:08.575Z,23.80
2018-12-29T07:14:20.937Z,24.97
2018-12-29T07:16:50.923Z,23.80
2018-12-29T07:19:30.228Z,24.07
2018-12-29T07:22:07.927Z,25.10
2018-12-29T07:24:44.819Z,24.10
2018-12-29T07:27:20.303Z,25.77
2018-12-29T07:29:53.233Z,26.03
2018-12-29T07:32:25.625Z,26.70
2018-12-29T07:35:01.255Z,25.23
2018-12-29T07:37:38.425Z,25.90
2018-12-29T07:40:24.346Z,26.13
2018-12-29T07:42:57.729Z,25.47
2018-12-29T07:45:35.897Z,25.23
2018-12-29T07:48:24.660Z,25.00
2018-12-29T07:51:12.002Z,25.07
2018-12-29T07:53:44.375Z,24.73
2018-12-29T07:56:21.091Z,25.23
2018-12-29T07:59:06.471Z,24.87
2018-12-29T08:04:32.645Z,25.63
2018-12-29T08:07:07.334Z,27.10
2018-12-29T08:09:38.179Z,26.37
2018-12-29T08:12:08.695Z,27.30
2018-12-29T08:14:38.802Z,27.83
2018-12-29T08:17:10.048Z,28.27
2018-12-29T08:19:50.559Z,29.13
2018-12-29T08:22:21.345Z,28.83
2018-12-29T08:25:03.369Z,27.93
2018-12-29T08:30:16.522Z,27.13
2018-12-29T08:32:46.203Z,28.87
2018-12-29T08:35:20.111Z,29.37
2018-12-29T08:37:49.661Z,28.47
2018-12-29T08:40:19.323Z,29.50
2018-12-29T08:42:54.314Z,28.83
2018-12-29T08:45:27.889Z,28.27
2018-12-29T08:47:57.406Z,30.57
2018-12-29T08:50:26.909Z,30.13
2018-12-29T08:53:25.587Z,31.27
2018-12-29T08:55:56.912Z,28.63
2018-12-29T08:59:03.129Z,28.77
2018-12-29T09:01:37.416Z,28.03
2018-12-29T09:04:08.896Z,29.73
2018-12-29T09:06:42.130Z,30.10
2018-12-29T09:09:12.259Z,29.70
2018-12-29T09:11:41.791Z,28.17
2018-12-29T09:14:12.991Z,29.80
2018-12-29T09:16:44.277Z,29.00
2018-12-29T09:19:16.437Z,30.20
2018-12-29T09:21:46.128Z,29.50
2018-12-29T09:24:17.531Z,28.00
2018-12-29T09:26:47.587Z,26.73
2018-12-29T09:29:26.205Z,28.17
2018-12-29T09:31:55.977Z,26.23
2018-12-29T09:34:27.906Z,27.90
2018-12-29T09:36:57.819Z,27.93
2018-12-29T09:39:35.006Z,27.17
2018-12-29T09:42:07.056Z,27.00
2018-12-29T09:44:52.620Z,27.30
2018-12-29T09:47:22.059Z,27.93
2018-12-29T09:49:54.635Z,27.97
2018-12-29T09:52:29.160Z,27.57
2018-12-29T09:54:57.379Z,27.97
2018-12-29T09:57:26.840Z,26.47
2018-12-29T10:00:02.078Z,27.47
2018-12-29T10:02:31.826Z,27.77
2018-12-29T10:05:01.679Z,29.48
2018-12-29T10:07:43.342Z,26.10
2018-12-29T10:10:12.855Z,25.80
2018-12-29T10:12:50.117Z,25.67
2018-12-29T10:15:33.375Z,24.93
2018-12-29T10:18:07.636Z,23.77
2018-12-29T10:20:40.677Z,25.20
2018-12-29T10:23:42.438Z,23.97
2018-12-29T10:26:16.864Z,24.00
2018-12-29T10:28:52.416Z,25.57
2018-12-29T10:31:38.889Z,24.03
2018-12-29T10:34:51.753Z,24.33
2018-12-29T10:37:42.397Z,24.57
2018-12-29T10:40:17.475Z,25.43
2018-12-29T10:42:59.630Z,25.23
2018-12-29T10:46:10.841Z,24.73
2018-12-29T10:48:52.282Z,25.37
2018-12-29T10:51:25.739Z,26.00
2018-12-29T10:53:55.306Z,25.53
2018-12-29T10:56:35.947Z,27.82
2018-12-29T10:59:56.953Z,26.10
2018-12-29T11:03:11.207Z,26.33
2018-12-29T11:05:42.551Z,24.60
2018-12-29T11:08:14.812Z,23.23
2018-12-29T11:10:51.545Z,23.57
2018-12-29T11:13:24.354Z,24.23
2018-12-29T11:15:56.689Z,24.40
2018-12-29T11:18:33.421Z,23.90
2018-12-29T11:21:11.569Z,23.10
2018-12-29T11:27:11.969Z,24.57
2018-12-29T11:29:53.216Z,24.07
2018-12-29T11:33:02.607Z,25.50
2018-12-29T11:36:23.195Z,23.83
2018-12-29T11:39:15.144Z,26.00
2018-12-29T11:42:28.431Z,23.00
2018-12-29T11:46:01.327Z,24.60
2018-12-29T11:52:53.617Z,25.47
2018-12-29T12:03:11.310Z,26.13
2018-12-29T12:06:37.981Z,28.00
2018-12-29T12:09:57.560Z,28.30
2018-12-29T12:12:44.352Z,27.37
2018-12-29T12:16:21.340Z,28.60
2018-12-29T12:19:14.314Z,28.97
2018-12-29T12:22:25.319Z,27.60
2018-12-29T12:24:55.510Z,27.20
2018-12-29T12:27:27.916Z,26.80
2018-12-29T12:30:45.836Z,25.93
2018-12-29T12:33:20.533Z,23.73
2018-12-29T12:35:54.212Z,23.47
2018-12-29T12:41:32.523Z,23.80
2018-12-29T12:44:02.846Z,22.67
2018-12-29T12:46:39.703Z,21.43
2018-12-29T12:49:14.884Z,20.70
2018-12-29T12:51:45.797Z,19.97
2018-12-29T12:54:28.456Z,18.67
2018-12-29T12:56:58.196Z,18.53
2018-12-29T12:59:34.232Z,18.20
2018-12-29T13:05:04.163Z,17.87
2018-12-29T13:07:44.668Z,18.10
2018-12-29T13:10:14.628Z,16.47
2018-12-29T13:12:45.104Z,17.37
2018-12-29T13:15:15.068Z,16.90
2018-12-29T13:18:15.069Z,18.23
2018-12-29T13:20:44.928Z,14.57
2018-12-29T13:23:16.960Z,15.17
2018-12-29T13:25:47.618Z,13.90
2018-12-29T13:28:20.179Z,14.70
2018-12-29T13:30:50.285Z,13.03
2018-12-29T13:33:20.311Z,13.10
2018-12-29T13:35:50.223Z,11.30
2018-12-29T13:38:23.513Z,10.93
2018-12-29T13:40:57.233Z,8.47
2018-12-29T13:43:29.794Z,9.40
2018-12-29T13:46:00.545Z,8.13
2018-12-29T13:48:30.161Z,8.77
2018-12-29T13:51:03.449Z,7.20
2018-12-29T13:53:33.169Z,8.00
2018-12-29T13:56:06.308Z,9.23
2018-12-29T13:58:41.009Z,7.17
2018-12-29T14:01:22.665Z,7.33
2018-12-29T14:03:55.647Z,7.40
2018-12-29T14:06:45.281Z,7.27
2018-12-29T14:09:15.058Z,9.30
2018-12-29T14:11:54.697Z,8.60
2018-12-29T14:14:29.274Z,7.40
2018-12-29T14:17:02.220Z,7.67
2018-12-29T14:19:41.215Z,8.33
2018-12-29T14:22:16.984Z,10.43
2018-12-29T14:24:59.533Z,9.40
2018-12-29T14:27:34.277Z,9.80
2018-12-29T14:30:34.392Z,10.80
2018-12-29T14:33:16.995Z,10.47
2018-12-29T14:36:10.570Z,10.50
2018-12-29T14:38:47.690Z,8.77
2018-12-29T14:41:48.388Z,10.13
2018-12-29T14:44:18.168Z,10.37
2018-12-29T14:47:02.085Z,9.80
2018-12-29T14:49:27.448Z,10.50
2018-12-29T14:52:01.404Z,9.30
2018-12-29T14:54:32.039Z,9.23
2018-12-29T14:57:08.869Z,7.93
2018-12-29T14:59:38.319Z,8.77
2018-12-29T15:02:09.299Z,9.30
2018-12-29T15:04:38.928Z,8.97
2018-12-29T15:07:08.301Z,7.73
2018-12-29T15:09:37.652Z,7.57
2018-12-29T15:12:07.285Z,7.40
2018-12-29T15:14:38.126Z,7.50
2018-12-29T15:17:08.851Z,8.17
2018-12-29T15:19:45.192Z,7.83
2018-12-29T15:22:17.573Z,8.17
2018-12-29T15:24:48.310Z,6.70
2018-12-29T15:27:44.362Z,7.57
2018-12-29T15:30:13.873Z,6.63
2018-12-29T15:32:43.361Z,7.40
2018-12-29T15:35:13.411Z,6.57
2018-12-29T15:37:44.370Z,6.57
2018-12-29T15:40:13.975Z,6.70
2018-12-29T15:42:46.801Z,7.00
2018-12-29T15:45:17.857Z,7.23
2018-12-29T15:47:48.540Z,7.73
2018-12-29T15:50:21.721Z,7.40
2018-12-29T15:52:52.764Z,6.93
2018-12-29T15:55:23.311Z,6.53
2018-12-29T15:57:54.863Z,6.53
2018-12-29T16:00:24.515Z,6.17
2018-12-29T16:03:07.011Z,6.87
2018-12-29T16:05:40.736Z,7.63
2018-12-29T16:08:40.555Z,7.50
2018-12-29T16:11:17.822Z,6.47
2018-12-29T16:14:06.439Z,6.57
2018-12-29T16:17:01.676Z,5.93
2018-12-29T16:19:33.592Z,6.33
2018-12-29T16:22:05.469Z,6.33
2018-12-29T16:24:35.118Z,6.90
2018-12-29T16:27:07.254Z,5.83
2018-12-29T16:29:38.782Z,6.87
2018-12-29T16:32:11.975Z,6.70
2018-12-29T16:34:44.562Z,6.40
2018-12-29T16:37:19.670Z,6.70
2018-12-29T16:39:55.740Z,6.20
2018-12-29T16:42:28.067Z,6.40
2018-12-29T16:44:57.670Z,7.53
2018-12-29T16:47:29.357Z,7.77
2018-12-29T16:49:58.997Z,6.87
2018-12-29T16:52:33.618Z,5.57
2018-12-29T16:55:04.304Z,6.13
2018-12-29T16:57:42.156Z,5.17
2018-12-29T17:00:12.104Z,7.00
2018-12-29T17:02:41.554Z,6.60
2018-12-29T17:05:11.598Z,5.83
2018-12-29T17:07:50.984Z,4.93
2018-12-29T17:10:20.509Z,5.17
2018-12-29T17:12:50.324Z,4.80
2018-12-29T17:15:39.399Z,4.63
2018-12-29T17:18:09.926Z,3.60
2018-12-29T17:20:40.831Z,4.30
2018-12-29T17:23:13.365Z,4.00
2018-12-29T17:25:43.179Z,3.50
2018-12-29T17:28:12.777Z,3.83
2018-12-29T17:30:42.228Z,5.33
2018-12-29T17:33:11.618Z,3.30
2018-12-29T17:35:42.058Z,4.13
2018-12-29T17:38:11.973Z,3.27
2018-12-29T17:40:41.475Z,3.43
2018-12-29T17:43:13.324Z,3.33
2018-12-29T17:45:42.182Z,3.63
2018-12-29T17:48:11.566Z,3.90
2018-12-29T17:50:43.293Z,5.73
2018-12-29T17:53:18.218Z,3.70
2018-12-29T17:55:49.874Z,3.97
2018-12-29T17:58:19.257Z,2.90
2018-12-29T18:00:49.151Z,2.93
2018-12-29T18:03:18.749Z,3.20
2018-12-29T18:05:51.195Z,3.00
2018-12-29T18:08:20.784Z,3.63
2018-12-29T18:10:50.270Z,2.83
2018-12-29T18:13:19.882Z,3.07
2018-12-29T18:15:50.515Z,3.43
2018-12-29T18:18:20.266Z,3.63
2018-12-29T18:20:49.703Z,3.63
2018-12-29T18:23:37.850Z,3.73
2018-12-29T18:26:03.258Z,3.17
2018-12-29T18:28:35.389Z,3.40
2018-12-29T18:31:07.542Z,2.90
2018-12-29T18:33:37.577Z,3.90
2018-12-29T18:36:10.735Z,3.97
2018-12-29T18:38:43.344Z,3.20
2018-12-29T18:41:12.940Z,2.73
2018-12-29T18:43:44.742Z,2.87
2018-12-29T18:46:15.878Z,2.93
2018-12-29T18:48:45.220Z,3.67
2018-12-29T18:51:16.673Z,3.37
2018-12-29T18:53:48.997Z,2.90
2018-12-29T18:56:18.432Z,4.73
2018-12-29T18:58:47.920Z,3.60
2018-12-29T19:01:19.577Z,4.20
2018-12-29T19:03:48.925Z,3.77
2018-12-29T19:06:18.944Z,3.23
2018-12-29T19:08:48.561Z,4.90
2018-12-29T19:11:19.717Z,3.80
2018-12-29T19:13:49.116Z,3.73
2018-12-29T19:16:19.129Z,3.30
2018-12-29T19:18:48.445Z,3.77
2018-12-29T19:21:18.156Z,4.43
2018-12-29T19:23:49.362Z,4.70
2018-12-29T19:26:19.140Z,3.33
2018-12-29T19:28:48.904Z,5.10
2018-12-29T19:31:18.887Z,4.20
2018-12-29T19:33:52.416Z,4.30
2018-12-29T19:36:21.887Z,3.57
2018-12-29T19:38:51.459Z,4.00
2018-12-29T19:41:20.829Z,4.27
2018-12-29T19:43:50.591Z,4.03
2018-12-29T19:46:20.579Z,3.97
2018-12-29T19:48:50.066Z,3.23
2018-12-29T19:51:19.542Z,3.30
2018-12-29T19:53:51.099Z,2.80
2018-12-29T19:56:23.498Z,3.80
2018-12-29T19:58:56.385Z,3.43
2018-12-29T20:01:25.811Z,3.53
2018-12-29T20:03:55.627Z,4.20
2018-12-29T20:06:33.768Z,3.30
2018-12-29T20:09:04.629Z,3.37
2018-12-29T20:11:34.211Z,3.83
2018-12-29T20:14:07.038Z,3.77
2018-12-29T20:16:39.219Z,3.53
2018-12-29T20:19:33.797Z,3.53
2018-12-29T20:22:03.334Z,2.73
2018-12-29T20:24:32.855Z,4.20
2018-12-29T20:27:04.880Z,3.27
2018-12-29T20:29:34.302Z,2.97
2018-12-29T20:32:03.816Z,2.77
2018-12-29T20:34:34.073Z,4.23
2018-12-29T20:37:08.445Z,3.53
2018-12-29T20:39:41.413Z,3.80
2018-12-29T20:42:18.134Z,3.40
2018-12-29T20:44:55.775Z,3.97
2018-12-29T20:47:49.141Z,3.70
2018-12-29T20:50:20.615Z,3.73
2018-12-29T20:59:53.735Z,4.07
2018-12-29T21:02:25.556Z,3.50
2018-12-29T21:05:04.228Z,2.60
2018-12-29T21:07:51.433Z,3.63
2018-12-29T21:10:36.511Z,2.97
2018-12-29T21:13:13.961Z,3.13
2018-12-29T21:15:48.752Z,2.93
2018-12-29T21:18:45.792Z,4.30
2018-12-29T21:21:24.403Z,3.87
2018-12-29T21:24:12.625Z,3.27
2018-12-29T21:27:06.328Z,2.67
2018-12-29T21:30:24.248Z,3.67
2018-12-29T21:32:56.005Z,2.57
2018-12-29T21:35:57.692Z,3.20
2018-12-29T21:38:33.521Z,3.23
2018-12-29T21:41:03.148Z,2.43
2018-12-29T21:43:32.821Z,2.63
2018-12-29T21:46:02.526Z,3.57
2018-12-29T21:48:33.291Z,3.10
2018-12-29T21:51:20.233Z,4.23
2018-12-29T21:53:49.835Z,3.90
2018-12-29T21:56:22.415Z,3.77
2018-12-29T21:58:59.645Z,3.40
2018-12-29T22:01:38.378Z,3.27
2018-12-29T22:04:14.433Z,2.57
2018-12-29T22:06:46.328Z,3.20
2018-12-29T22:09:24.627Z,2.97
2018-12-29T22:12:14.613Z,5.47
2018-12-29T22:14:52.386Z,3.27
2018-12-29T22:17:34.716Z,4.43
2018-12-29T22:20:08.902Z,3.37
2018-12-29T22:23:21.120Z,2.50
2018-12-29T22:29:09.513Z,3.27
2018-12-29T22:31:39.307Z,2.57
2018-12-29T22:34:13.226Z,3.40
2018-12-29T22:37:03.439Z,3.23
2018-12-29T22:39:56.737Z,3.50
2018-12-29T22:42:59.954Z,3.83
2018-12-29T22:45:48.251Z,3.67
2018-12-29T22:57:18.616Z,3.17
2018-12-29T23:03:08.418Z,2.30
2018-12-29T23:06:18.300Z,2.20
2018-12-29T23:11:49.633Z,3.40
2018-12-29T23:14:48.674Z,3.67
2018-12-29T23:17:20.286Z,3.77
2018-12-29T23:26:36.498Z,3.27
2018-12-29T23:29:50.801Z,3.77
2018-12-29T23:32:43.356Z,3.30
2018-12-29T23:35:17.740Z,2.70
2018-12-29T23:38:06.451Z,3.33
2018-12-29T23:40:36.739Z,2.70
2018-12-29T23:43:12.044Z,2.83
2018-12-29T23:45:49.354Z,2.70
2018-12-29T23:48:24.095Z,3.57
2018-12-29T23:51:22.837Z,3.50
2018-12-29T23:54:02.551Z,3.10
2018-12-29T23:57:01.854Z,3.33
